Time;durP1;ratioP1;P1;durP2;ratioP2;P2;SDS_P1;SDS_P2;PMS_P1;PMS_P2;Temp;Humidity;BMP_temperature;BMP_pressure;BME280_temperature;BME280_humidity;BME280_pressure;Samples;Min_cycle;Max_cycle;Signal;HPM_P1;HPM_P2
2022/06/19 00:02:23;;;;;;;20.77;3.35;;;8.80;87.10;;;;;;4943451;29;20043;-74
2022/06/19 00:04:53;;;;;;;17.67;3.08;;;8.80;87.10;;;;;;4945958;29;20071;-74
2022/06/19 00:07:22;;;;;;;20.25;2.80;;;8.80;87.20;;;;;;4949687;29;20058;-74
2022/06/19 00:09:50;;;;;;;15.15;3.20;;;8.80;87.20;;;;;;4953396;29;20493;-74
2022/06/19 00:12:18;;;;;;;17.00;2.90;;;8.80;87.30;;;;;;4932705;29;20051;-74
2022/06/19 00:14:46;;;;;;;22.42;3.10;;;8.80;87.40;;;;;;4949119;29;20493;-74
2022/06/19 00:17:15;;;;;;;16.13;2.60;;;8.80;87.30;;;;;;4950557;29;20055;-74
2022/06/19 00:19:44;;;;;;;17.88;2.85;;;8.80;87.20;;;;;;4949172;28;20058;-74
2022/06/19 00:22:12;;;;;;;15.73;2.20;;;8.90;87.20;;;;;;4956418;28;20062;-74
2022/06/19 00:24:39;;;;;;;11.73;2.38;;;8.80;87.10;;;;;;4954485;29;20043;-74
2022/06/19 00:27:07;;;;;;;16.25;2.63;;;8.80;87.10;;;;;;4953126;29;20047;-74
2022/06/19 00:29:34;;;;;;;13.52;2.58;;;8.80;87.10;;;;;;4951088;28;20060;-74
2022/06/19 00:32:06;;;;;;;10.40;2.30;;;8.80;87.10;;;;;;4951880;29;20047;-74
2022/06/19 00:34:36;;;;;;;13.35;2.88;;;8.70;87.20;;;;;;4942702;29;20039;-74
2022/06/19 00:37:05;;;;;;;17.67;2.90;;;8.60;87.20;;;;;;4944455;28;20059;-73
2022/06/19 00:39:39;;;;;;;14.20;2.65;;;8.60;87.30;;;;;;4949056;28;20058;-74
2022/06/19 00:42:10;;;;;;;12.95;3.05;;;8.60;87.40;;;;;;4944616;28;20051;-74
2022/06/19 00:44:38;;;;;;;13.75;2.80;;;8.50;87.40;;;;;;4941499;28;20050;-73
2022/06/19 00:47:19;;;;;;;15.90;2.55;;;8.50;87.40;;;;;;4940472;28;20080;-73
2022/06/19 00:49:53;;;;;;;17.40;2.63;;;8.50;87.30;;;;;;4938042;28;20055;-73
2022/06/19 00:52:25;;;;;;;14.38;2.67;;;8.40;87.30;;;;;;4933898;28;20062;-73
2022/06/19 00:55:11;;;;;;;12.77;2.95;;;8.30;87.30;;;;;;4938833;28;20054;-74
2022/06/19 00:57:42;;;;;;;18.60;2.65;;;8.30;87.30;;;;;;4948981;28;20054;-75
2022/06/19 01:00:16;;;;;;;17.20;3.28;;;8.30;87.40;;;;;;4932709;28;20043;-75
2022/06/19 01:02:44;;;;;;;13.38;3.03;;;8.20;87.40;;;;;;4933517;28;20489;-74
2022/06/19 01:05:14;;;;;;;17.77;3.65;;;8.10;87.50;;;;;;4947471;28;20035;-75
2022/06/19 01:07:44;;;;;;;18.90;3.35;;;8.00;87.60;;;;;;4948388;28;20051;-74
2022/06/19 01:10:12;;;;;;;11.82;2.83;;;8.00;87.60;;;;;;4945815;28;20043;-74
2022/06/19 01:12:42;;;;;;;21.55;3.30;;;7.90;87.70;;;;;;4948728;28;20050;-74
2022/06/19 01:15:14;;;;;;;16.98;3.25;;;7.80;87.80;;;;;;4929958;29;20478;-74
2022/06/19 01:17:44;;;;;;;16.42;3.00;;;7.70;87.90;;;;;;4946079;28;20105;-75
2022/06/19 01:20:12;;;;;;;15.05;3.65;;;7.70;88.00;;;;;;4947856;28;20383;-74
2022/06/19 01:22:49;;;;;;;21.25;3.50;;;7.60;88.10;;;;;;4947058;28;20051;-74
2022/06/19 01:25:28;;;;;;;15.52;2.88;;;7.60;88.20;;;;;;4947402;28;20047;-74
2022/06/19 01:30:48;;;;;;;11.88;2.72;;;7.60;88.30;;;;;;4948010;28;20397;-75
2022/06/19 01:33:22;;;;;;;12.77;2.90;;;7.50;88.40;;;;;;4947997;28;20054;-75
2022/06/19 01:35:52;;;;;;;16.08;2.90;;;7.60;88.50;;;;;;4946081;28;20055;-75
2022/06/19 01:38:22;;;;;;;14.32;3.03;;;7.60;88.50;;;;;;4943592;28;20044;-75
2022/06/19 01:40:55;;;;;;;21.67;3.05;;;7.60;88.40;;;;;;4952386;28;20043;-75
2022/06/19 01:43:23;;;;;;;16.80;2.92;;;7.70;88.40;;;;;;4953743;28;20043;-75
2022/06/19 01:45:53;;;;;;;13.07;2.80;;;7.70;88.40;;;;;;4925261;28;20404;-75
2022/06/19 01:48:23;;;;;;;15.95;2.90;;;7.70;88.40;;;;;;4954246;28;20047;-75
2022/06/19 01:50:51;;;;;;;18.17;3.05;;;7.70;88.40;;;;;;4953881;28;20050;-75
2022/06/19 01:53:29;;;;;;;15.35;2.90;;;7.70;88.40;;;;;;4948384;28;20044;-75
2022/06/19 01:55:57;;;;;;;20.00;3.17;;;7.70;88.40;;;;;;4952115;28;20050;-75
2022/06/19 01:58:31;;;;;;;11.20;2.72;;;7.60;88.30;;;;;;4958494;29;20066;-75
2022/06/19 02:00:58;;;;;;;16.98;3.08;;;7.60;88.40;;;;;;4953627;28;20106;-75
2022/06/19 02:03:35;;;;;;;19.50;3.13;;;7.60;88.50;;;;;;4954258;28;20063;-74
2022/06/19 02:06:05;;;;;;;15.80;2.83;;;7.60;88.50;;;;;;4954160;28;20386;-75
2022/06/19 02:08:34;;;;;;;13.38;2.72;;;7.60;88.50;;;;;;4951485;28;20058;-75
2022/06/19 02:11:05;;;;;;;18.85;3.28;;;7.60;88.60;;;;;;4952242;28;20047;-75
2022/06/19 02:13:34;;;;;;;25.08;3.78;;;7.60;88.60;;;;;;4951618;28;20198;-75
2022/06/19 02:16:06;;;;;;;13.77;2.75;;;7.60;88.60;;;;;;4951971;28;20048;-75
2022/06/19 02:18:40;;;;;;;20.45;2.97;;;7.60;88.60;;;;;;4957833;28;20051;-74
2022/06/19 02:21:12;;;;;;;15.13;2.83;;;7.60;88.50;;;;;;4950461;29;20498;-74
2022/06/19 02:23:40;;;;;;;17.20;3.40;;;7.50;88.50;;;;;;4959392;29;20100;-74
2022/06/19 02:26:10;;;;;;;12.13;2.67;;;7.50;88.60;;;;;;4957962;28;20059;-75
2022/06/19 02:28:41;;;;;;;15.32;3.47;;;7.50;88.60;;;;;;4954691;29;20061;-75
2022/06/19 02:31:09;;;;;;;18.40;3.13;;;7.50;88.70;;;;;;4952092;29;20050;-75
2022/06/19 02:33:59;;;;;;;17.02;3.42;;;7.50;88.70;;;;;;4958207;29;20050;-74
2022/06/19 02:36:34;;;;;;;19.00;3.33;;;7.50;88.80;;;;;;4946451;29;20043;-74
2022/06/19 02:39:40;;;;;;;19.33;3.10;;;7.50;88.80;;;;;;4957686;29;20067;-74
2022/06/19 02:42:20;;;;;;;15.48;3.15;;;7.50;88.80;;;;;;4928221;29;20048;-74
2022/06/19 02:44:54;;;;;;;14.35;2.60;;;7.50;88.80;;;;;;4949045;29;20528;-74
2022/06/19 02:47:23;;;;;;;10.93;2.92;;;7.40;88.80;;;;;;4953332;29;20043;-74
2022/06/19 02:49:51;;;;;;;12.43;2.78;;;7.40;88.80;;;;;;4943988;29;20494;-74
2022/06/19 02:52:19;;;;;;;20.55;3.65;;;7.40;88.80;;;;;;4956378;28;20051;-74
2022/06/19 02:54:47;;;;;;;12.80;2.55;;;7.40;88.80;;;;;;4951107;29;20047;-74
2022/06/19 02:57:16;;;;;;;11.18;2.85;;;7.40;88.90;;;;;;4934174;29;20040;-74
2022/06/19 02:59:44;;;;;;;12.25;3.13;;;7.30;88.90;;;;;;4949877;28;20051;-74
2022/06/19 03:02:13;;;;;;;22.92;3.03;;;7.30;89.00;;;;;;4950219;28;20055;-72
2022/06/19 03:04:49;;;;;;;13.35;2.63;;;7.30;89.10;;;;;;4949707;28;20066;-75
2022/06/19 03:07:16;;;;;;;16.08;2.90;;;7.30;89.20;;;;;;4947368;28;20059;-74
2022/06/19 03:09:45;;;;;;;24.40;3.25;;;7.30;89.10;;;;;;4951541;28;20047;-74
2022/06/19 03:12:12;;;;;;;17.58;3.60;;;7.30;89.20;;;;;;4948801;28;20516;-74
2022/06/19 03:14:44;;;;;;;15.35;2.92;;;7.30;89.10;;;;;;4947622;28;20063;-74
2022/06/19 03:17:17;;;;;;;22.38;3.42;;;7.30;89.20;;;;;;4945200;28;20374;-73
2022/06/19 03:19:50;;;;;;;19.40;3.15;;;7.30;89.10;;;;;;4946011;28;20050;-74
2022/06/19 03:22:18;;;;;;;17.15;3.05;;;7.30;89.20;;;;;;4951187;28;20477;-74
2022/06/19 03:24:45;;;;;;;15.73;2.65;;;7.30;89.30;;;;;;4949996;28;20062;-74
2022/06/19 03:27:14;;;;;;;15.32;3.00;;;7.30;89.30;;;;;;4965494;28;20413;-75
2022/06/19 03:29:42;;;;;;;12.20;3.00;;;7.30;89.20;;;;;;4948157;28;20058;-75
2022/06/19 03:32:11;;;;;;;14.80;2.83;;;7.30;89.30;;;;;;4949896;28;20055;-77
2022/06/19 03:34:42;;;;;;;15.23;3.22;;;7.30;89.30;;;;;;4948661;28;20047;-75
2022/06/19 03:37:10;;;;;;;16.67;3.83;;;7.30;89.30;;;;;;4948724;28;20043;-72
2022/06/19 03:39:38;;;;;;;18.90;3.13;;;7.30;89.50;;;;;;4948706;28;20499;-73
2022/06/19 03:42:06;;;;;;;13.63;3.00;;;7.30;89.30;;;;;;4950240;28;20051;-74
2022/06/19 03:44:34;;;;;;;19.40;3.35;;;7.30;89.30;;;;;;4951570;28;20428;-74
2022/06/19 03:47:02;;;;;;;18.13;3.45;;;7.30;89.30;;;;;;4949604;28;20051;-74
2022/06/19 03:49:30;;;;;;;9.20;3.15;;;7.30;89.30;;;;;;4951237;28;20043;-74
2022/06/19 03:51:58;;;;;;;19.70;3.75;;;7.30;89.50;;;;;;4944811;28;20493;-74
2022/06/19 03:54:25;;;;;;;21.45;3.85;;;7.30;89.50;;;;;;4950608;28;20039;-74
2022/06/19 03:56:54;;;;;;;14.35;3.20;;;7.30;89.50;;;;;;4952438;29;20039;-74
2022/06/19 03:59:21;;;;;;;15.93;3.13;;;7.30;89.50;;;;;;4950197;28;20409;-74
2022/06/19 04:01:49;;;;;;;11.00;2.75;;;7.30;89.50;;;;;;4951771;28;20054;-75
2022/06/19 04:04:17;;;;;;;12.77;2.70;;;7.20;89.50;;;;;;4948650;28;20062;-74
2022/06/19 04:06:44;;;;;;;14.27;3.17;;;7.20;89.50;;;;;;4947550;29;20059;-74
2022/06/19 04:09:17;;;;;;;17.33;3.42;;;7.20;89.50;;;;;;4949832;28;20043;-74
2022/06/19 04:11:46;;;;;;;18.90;3.00;;;7.10;89.70;;;;;;4948976;28;20055;-74
2022/06/19 04:14:15;;;;;;;13.23;3.65;;;7.10;89.80;;;;;;4948418;28;20517;-74
2022/06/19 04:16:43;;;;;;;14.52;3.38;;;7.10;89.90;;;;;;4946286;28;20090;-74
2022/06/19 04:19:11;;;;;;;15.82;3.58;;;7.20;90.20;;;;;;4945485;29;20054;-74
2022/06/19 04:21:43;;;;;;;17.73;3.65;;;7.30;90.20;;;;;;4946616;28;20055;-74
2022/06/19 04:24:14;;;;;;;25.35;4.18;;;7.40;90.00;;;;;;4960753;28;20047;-74
2022/06/19 04:26:42;;;;;;;16.40;3.72;;;7.60;89.90;;;;;;4947834;28;20051;-74
2022/06/19 04:29:10;;;;;;;13.70;2.70;;;7.70;89.90;;;;;;4947836;28;20059;-74
2022/06/19 04:31:38;;;;;;;24.08;3.35;;;7.80;89.80;;;;;;4950663;28;20437;-74
2022/06/19 04:34:08;;;;;;;21.58;3.20;;;8.00;89.70;;;;;;4949121;28;20063;-75
2022/06/19 04:36:36;;;;;;;16.00;2.85;;;8.10;89.50;;;;;;4946138;28;20063;-75
2022/06/19 04:39:05;;;;;;;13.82;3.38;;;8.30;89.50;;;;;;4950094;28;20397;-75
2022/06/19 04:41:38;;;;;;;15.57;2.70;;;8.30;89.50;;;;;;4948826;29;20043;-75
2022/06/19 04:44:14;;;;;;;23.48;3.33;;;8.50;89.50;;;;;;4949841;28;20493;-75
2022/06/19 04:46:43;;;;;;;14.95;2.40;;;8.80;89.40;;;;;;4950049;28;20043;-75
2022/06/19 04:49:13;;;;;;;14.85;3.05;;;8.90;89.30;;;;;;4950433;28;20058;-75
2022/06/19 04:51:40;;;;;;;21.70;2.80;;;9.10;89.20;;;;;;4947918;28;20508;-75
2022/06/19 04:54:09;;;;;;;12.80;2.50;;;9.30;89.10;;;;;;4940844;28;20063;-75
2022/06/19 04:56:37;;;;;;;20.55;2.72;;;9.40;88.80;;;;;;4946923;28;20059;-75
2022/06/19 04:59:06;;;;;;;15.93;2.75;;;9.50;88.60;;;;;;4947198;28;20051;-75
2022/06/19 05:01:36;;;;;;;18.13;2.45;;;9.60;88.30;;;;;;4949541;28;20709;-75
2022/06/19 05:04:08;;;;;;;15.60;2.55;;;9.60;88.30;;;;;;4948146;28;20055;-74
2022/06/19 05:06:36;;;;;;;12.95;2.55;;;9.70;88.40;;;;;;4946902;28;20493;-74
2022/06/19 05:09:04;;;;;;;13.70;2.10;;;9.80;88.30;;;;;;4947412;28;20048;-73
2022/06/19 05:11:32;;;;;;;23.05;2.30;;;9.80;88.20;;;;;;4949420;28;20047;-74
2022/06/19 05:14:01;;;;;;;16.67;2.25;;;9.90;88.10;;;;;;4947999;28;20051;-73
2022/06/19 05:16:30;;;;;;;14.32;2.53;;;10.00;87.90;;;;;;4948522;28;20050;-73
2022/06/19 05:19:00;;;;;;;9.73;1.83;;;10.00;87.70;;;;;;4949322;28;20054;-73
2022/06/19 05:21:27;;;;;;;18.45;2.95;;;10.00;87.60;;;;;;4948404;28;20043;-73
2022/06/19 05:23:56;;;;;;;14.38;2.50;;;10.00;87.60;;;;;;4945289;28;20510;-73
2022/06/19 05:26:29;;;;;;;17.90;2.53;;;10.00;87.50;;;;;;4945735;28;20051;-73
2022/06/19 05:28:57;;;;;;;18.40;2.78;;;10.00;87.40;;;;;;4947616;28;20043;-73
2022/06/19 05:31:26;;;;;;;12.48;2.78;;;10.00;87.40;;;;;;4948283;28;20047;-73
2022/06/19 05:33:55;;;;;;;11.52;2.20;;;10.00;87.50;;;;;;4931857;29;20490;-74
2022/06/19 05:36:28;;;;;;;15.80;2.25;;;10.20;87.50;;;;;;4941393;28;20047;-73
2022/06/19 05:38:57;;;;;;;18.35;2.55;;;10.30;87.40;;;;;;4946736;28;20047;-73
2022/06/19 05:41:28;;;;;;;14.68;2.05;;;10.30;87.20;;;;;;4950160;28;20051;-73
2022/06/19 05:43:56;;;;;;;16.10;2.55;;;10.40;87.10;;;;;;4945578;28;20054;-73
2022/06/19 05:46:24;;;;;;;14.05;2.75;;;10.50;87.00;;;;;;4950301;28;20043;-73
2022/06/19 05:48:52;;;;;;;17.10;2.53;;;10.60;86.90;;;;;;4946765;28;20062;-73
2022/06/19 05:51:25;;;;;;;9.68;2.38;;;10.70;86.70;;;;;;4946677;28;20145;-73
2022/06/19 05:53:54;;;;;;;;;;;10.90;86.60;;;;;;4948726;28;20051;-73
2022/06/19 05:56:22;;;;;;;9.73;2.60;;;10.90;86.40;;;;;;4948270;28;19933;-74
2022/06/19 05:58:50;;;;;;;13.80;2.38;;;11.00;86.20;;;;;;4949111;28;20062;-73
2022/06/19 06:01:19;;;;;;;15.50;2.30;;;11.10;86.10;;;;;;4949225;28;20047;-73
2022/06/19 06:03:48;;;;;;;13.90;2.20;;;11.20;85.90;;;;;;4946335;28;20680;-73
2022/06/19 06:06:20;;;;;;;18.27;2.53;;;11.20;85.80;;;;;;4932442;28;20048;-73
2022/06/19 06:08:49;;;;;;;11.70;2.55;;;11.30;85.70;;;;;;4946316;28;20405;-73
2022/06/19 06:11:17;;;;;;;18.70;2.42;;;11.30;85.50;;;;;;4947577;28;20047;-73
2022/06/19 06:13:45;;;;;;;10.60;2.00;;;11.30;85.50;;;;;;4947528;28;20057;-74
2022/06/19 06:16:16;;;;;;;11.73;2.20;;;11.30;85.30;;;;;;4941875;28;20036;-73
2022/06/19 06:18:44;;;;;;;17.27;2.60;;;11.30;85.10;;;;;;4944842;28;20485;-73
2022/06/19 06:21:19;;;;;;;11.10;1.75;;;11.30;85.10;;;;;;4944180;28;20055;-74
2022/06/19 06:23:47;;;;;;;13.45;2.50;;;11.30;85.10;;;;;;4937631;28;20493;-73
2022/06/19 06:26:27;;;;;;;12.15;1.70;;;11.30;85.10;;;;;;4942564;28;20486;-74
2022/06/19 06:28:57;;;;;;;13.43;2.25;;;11.40;85.00;;;;;;4949668;28;20039;-73
2022/06/19 06:31:26;;;;;;;8.35;1.65;;;11.60;85.00;;;;;;4945201;28;20062;-73
2022/06/19 06:33:57;;;;;;;9.43;1.98;;;11.80;84.80;;;;;;4941968;28;20059;-74
2022/06/19 06:36:27;;;;;;;14.70;1.73;;;11.90;84.50;;;;;;4950135;28;20397;-74
2022/06/19 06:38:55;;;;;;;11.05;2.47;;;12.10;84.40;;;;;;4949671;28;20051;-74
2022/06/19 06:41:23;;;;;;;9.75;1.63;;;12.20;84.00;;;;;;4953538;28;20801;-74
2022/06/19 06:43:50;;;;;;;9.07;2.30;;;12.40;83.60;;;;;;4951628;28;20493;-73
2022/06/19 06:46:24;;;;;;;13.23;2.38;;;12.40;83.40;;;;;;4950303;28;20043;-74
2022/06/19 06:48:56;;;;;;;12.02;2.33;;;12.50;83.50;;;;;;4950072;28;20115;-75
2022/06/19 06:51:26;;;;;;;8.57;1.80;;;12.60;83.50;;;;;;4951457;28;20054;-75
2022/06/19 06:53:56;;;;;;;15.70;2.20;;;12.80;82.80;;;;;;4950084;28;20039;-73
2022/06/19 06:56:24;;;;;;;11.55;2.25;;;12.80;82.40;;;;;;4949143;28;20067;-74
2022/06/19 06:58:51;;;;;;;13.05;1.77;;;12.80;81.70;;;;;;4950962;28;20070;-74
2022/06/19 07:01:21;;;;;;;8.23;1.75;;;12.80;81.70;;;;;;4953931;28;20047;-73
2022/06/19 07:03:54;;;;;;;13.43;2.00;;;12.70;81.30;;;;;;4948836;28;20055;-74
2022/06/19 07:06:31;;;;;;;10.15;2.25;;;12.60;81.60;;;;;;4932410;28;20063;-72
2022/06/19 07:08:59;;;;;;;11.43;1.85;;;12.50;81.80;;;;;;4948551;28;20479;-73
2022/06/19 07:11:33;;;;;;;12.90;2.20;;;12.50;81.80;;;;;;4951812;28;20046;-72
2022/06/19 07:14:00;;;;;;;13.90;2.25;;;12.50;82.10;;;;;;4949711;28;20400;-72
2022/06/19 07:16:28;;;;;;;14.40;2.00;;;12.60;81.70;;;;;;4951226;28;20039;-73
2022/06/19 07:18:56;;;;;;;11.80;2.30;;;12.60;81.60;;;;;;4949010;28;20047;-72
2022/06/19 07:21:23;;;;;;;16.10;2.22;;;12.70;81.60;;;;;;4949184;28;20043;-72
2022/06/19 07:23:51;;;;;;;11.65;2.20;;;12.80;81.50;;;;;;4947277;28;20058;-73
2022/06/19 07:26:21;;;;;;;10.70;2.08;;;12.90;81.70;;;;;;4951623;28;20047;-71
2022/06/19 07:28:49;;;;;;;12.48;2.30;;;13.00;81.40;;;;;;4949153;28;20051;-73
2022/06/19 07:31:26;;;;;;;10.35;1.80;;;13.20;81.10;;;;;;4950368;28;20054;-71
2022/06/19 07:33:54;;;;;;;9.20;1.90;;;13.30;81.00;;;;;;4945156;28;20047;-71
2022/06/19 07:36:22;;;;;;;10.18;1.80;;;13.50;80.80;;;;;;4947828;28;20048;-71
2022/06/19 07:38:50;;;;;;;12.60;2.10;;;13.60;80.20;;;;;;4948954;28;20047;-72
2022/06/19 07:41:19;;;;;;;14.90;2.35;;;13.80;80.30;;;;;;4949731;28;20186;-72
2022/06/19 07:43:49;;;;;;;12.68;2.08;;;13.80;79.90;;;;;;4946456;28;20433;-72
2022/06/19 07:46:18;;;;;;;16.50;2.40;;;13.90;79.80;;;;;;4949857;28;20050;-72
2022/06/19 07:51:32;;;;;;;10.18;2.15;;;14.10;78.60;;;;;;4949930;28;20046;-72
2022/06/19 07:54:01;;;;;;;9.40;2.03;;;14.10;78.50;;;;;;4943860;28;20059;-72
2022/06/19 07:56:29;;;;;;;11.60;2.13;;;14.10;78.60;;;;;;4949022;28;20470;-71
2022/06/19 07:58:58;;;;;;;12.82;1.98;;;14.20;78.60;;;;;;4949934;28;20486;-72
2022/06/19 08:01:26;;;;;;;12.85;1.90;;;14.20;78.50;;;;;;4924553;28;20051;-72
2022/06/19 08:04:11;;;;;;;10.07;2.10;;;14.20;78.20;;;;;;4936339;29;20051;-72
2022/06/19 08:06:39;;;;;;;15.07;2.30;;;14.20;78.00;;;;;;4949720;28;20047;-71
2022/06/19 08:09:07;;;;;;;12.50;2.25;;;14.10;78.30;;;;;;4950800;28;20299;-72
2022/06/19 08:11:36;;;;;;;12.15;2.42;;;13.90;77.90;;;;;;4951355;28;20043;-72
2022/06/19 08:14:03;;;;;;;12.50;2.58;;;13.80;78.30;;;;;;4952507;29;20405;-72
2022/06/19 08:16:32;;;;;;;10.88;2.28;;;13.50;78.80;;;;;;4954756;29;20101;-73
2022/06/19 08:19:00;;;;;;;14.85;2.65;;;13.30;79.30;;;;;;4955241;29;20054;-73
2022/06/19 08:21:28;;;;;;;10.70;2.10;;;13.30;79.80;;;;;;4955143;29;20050;-72
2022/06/19 08:23:56;;;;;;;14.18;2.50;;;13.20;80.10;;;;;;4953876;29;20051;-72
2022/06/19 08:26:24;;;;;;;10.88;1.98;;;13.10;80.30;;;;;;4954001;29;20047;-72
2022/06/19 08:28:59;;;;;;;13.52;1.95;;;13.00;80.50;;;;;;4955198;29;20047;-72
2022/06/19 08:31:28;;;;;;;14.38;2.47;;;12.90;80.80;;;;;;4953649;29;20062;-72
2022/06/19 08:33:57;;;;;;;10.80;2.53;;;12.90;81.30;;;;;;4935847;29;20051;-72
2022/06/19 08:36:25;;;;;;;11.40;2.67;;;13.00;81.50;;;;;;4942765;29;20043;-72
2022/06/19 08:38:56;;;;;;;8.32;1.90;;;13.30;81.40;;;;;;4950794;29;20484;-72
2022/06/19 08:41:43;;;;;;;9.55;2.08;;;13.50;81.00;;;;;;4953318;29;20404;-72
2022/06/19 08:44:32;;;;;;;8.75;1.40;;;13.80;80.10;;;;;;4947240;29;20406;-72
2022/06/19 08:47:15;;;;;;;6.85;1.38;;;13.90;79.20;;;;;;4950640;29;20405;-72
2022/06/19 08:49:43;;;;;;;8.27;1.80;;;14.10;78.40;;;;;;4952150;28;20047;-71
2022/06/19 08:52:32;;;;;;;11.20;1.45;;;14.20;77.60;;;;;;4943839;29;20167;-71
2022/06/19 08:55:03;;;;;;;10.98;1.50;;;14.40;77.10;;;;;;4940305;29;20067;-72
2022/06/19 08:57:42;;;;;;;6.88;1.33;;;14.50;76.50;;;;;;4931733;29;20047;-72
2022/06/19 09:00:18;;;;;;;10.27;1.35;;;14.60;76.50;;;;;;4943024;28;20039;-72
2022/06/19 09:03:05;;;;;;;9.45;1.48;;;14.80;76.00;;;;;;4940984;28;20059;-72
2022/06/19 09:05:53;;;;;;;5.63;1.15;;;14.70;75.00;;;;;;4944697;29;20387;-72
2022/06/19 09:09:12;;;;;;;8.38;1.50;;;14.50;75.00;;;;;;4948199;29;20039;-72
2022/06/19 09:11:54;;;;;;;9.77;1.55;;;14.40;75.20;;;;;;4878425;29;20053;-72
2022/06/19 09:14:25;;;;;;;11.25;1.52;;;14.30;75.60;;;;;;4887043;29;21389;-72
2022/06/19 09:17:08;;;;;;;5.03;1.27;;;14.10;76.00;;;;;;4886540;29;20056;-73
2022/06/19 09:19:46;;;;;;;;;;;14.10;76.40;;;;;;4890709;29;20392;-72
2022/06/19 09:22:41;;;;;;;13.18;1.90;;;14.00;76.80;;;;;;4879374;29;19924;-72
2022/06/19 09:25:32;;;;;;;8.43;2.08;;;14.00;77.10;;;;;;4892984;29;20071;-72
2022/06/19 09:28:09;;;;;;;14.27;2.28;;;14.20;77.10;;;;;;4826967;29;20058;-72
2022/06/19 09:31:07;;;;;;;14.60;1.70;;;14.30;76.60;;;;;;4823661;29;20057;-72
2022/06/19 09:33:43;;;;;;;14.73;2.10;;;14.50;75.90;;;;;;4839147;29;20053;-72
2022/06/19 09:36:20;;;;;;;18.90;1.83;;;14.80;75.50;;;;;;4839451;29;20060;-72
2022/06/19 09:39:02;;;;;;;13.82;1.70;;;15.10;74.40;;;;;;4835066;29;20068;-72
2022/06/19 09:41:34;;;;;;;10.88;1.95;;;15.20;73.00;;;;;;4823487;29;20057;-71
2022/06/19 09:44:15;;;;;;;11.50;2.10;;;15.20;72.90;;;;;;4823951;29;20081;-70
2022/06/19 09:47:07;;;;;;;11.05;2.20;;;15.30;72.30;;;;;;4839699;29;20513;-72
2022/06/19 09:49:47;;;;;;;17.60;2.55;;;15.50;71.20;;;;;;4866857;29;20060;-73
2022/06/19 09:52:18;;;;;;;15.98;2.83;;;15.70;70.60;;;;;;4845473;29;20057;-70
2022/06/19 09:55:06;;;;;;;15.77;2.53;;;15.70;69.10;;;;;;4872675;29;20202;-72
2022/06/19 09:57:37;;;;;;;15.55;2.45;;;15.70;68.00;;;;;;4860208;29;20045;-72
2022/06/19 10:00:14;;;;;;;15.80;2.63;;;15.60;68.30;;;;;;4875578;29;20443;-71
2022/06/19 10:03:32;;;;;;;11.85;2.40;;;15.60;68.10;;;;;;4863972;29;20048;-72
2022/06/19 10:06:15;;;;;;;14.27;2.25;;;15.60;68.50;;;;;;4895471;29;20120;-71
2022/06/19 10:08:57;;;;;;;14.15;2.28;;;15.60;67.90;;;;;;4897733;29;20615;-72
2022/06/19 10:11:36;;;;;;;13.35;2.28;;;15.60;68.10;;;;;;4917277;29;20148;-73
2022/06/19 10:14:38;;;;;;;13.38;2.28;;;15.80;68.60;;;;;;4907400;29;20052;-73
2022/06/19 10:17:29;;;;;;;17.73;3.10;;;16.00;68.30;;;;;;4898337;29;20064;-73
2022/06/19 10:20:14;;;;;;;17.75;2.70;;;16.20;68.10;;;;;;4901343;29;20049;-73
2022/06/19 10:23:19;;;;;;;12.25;2.40;;;16.30;68.10;;;;;;4914128;29;20088;-72
2022/06/19 10:26:03;;;;;;;14.60;2.83;;;16.50;67.50;;;;;;4911007;29;20048;-73
2022/06/19 10:28:57;;;;;;;16.27;3.30;;;16.40;67.50;;;;;;4937994;29;20043;-73
2022/06/19 10:31:49;;;;;;;17.55;2.35;;;16.20;68.00;;;;;;4936889;29;20062;-73
2022/06/19 10:34:34;;;;;;;19.08;3.05;;;16.00;68.00;;;;;;4938145;29;20048;-73
2022/06/19 10:37:20;;;;;;;19.95;2.90;;;15.90;68.10;;;;;;4939975;29;20494;-72
2022/06/19 10:39:57;;;;;;;15.30;2.35;;;16.00;67.00;;;;;;4957019;29;20371;-72
2022/06/19 10:42:41;;;;;;;18.10;2.58;;;16.30;67.00;;;;;;4956893;29;20043;-71
2022/06/19 10:45:38;;;;;;;18.02;2.45;;;16.50;66.50;;;;;;4956604;28;20067;-72
2022/06/19 10:48:11;;;;;;;15.63;2.55;;;16.90;64.70;;;;;;4955786;29;20047;-72
2022/06/19 10:51:08;;;;;;;12.43;2.75;;;17.10;64.40;;;;;;4957955;29;20047;-72
2022/06/19 10:54:05;;;;;;;14.82;2.30;;;17.30;63.70;;;;;;4955484;29;20043;-73
2022/06/19 10:57:02;;;;;;;11.20;2.08;;;17.20;62.90;;;;;;4956393;29;20044;-73
2022/06/19 10:59:31;;;;;;;15.88;2.50;;;17.00;62.40;;;;;;4956698;29;20405;-72
2022/06/19 11:05:14;;;;;;;18.48;2.70;;;16.50;63.70;;;;;;4934896;29;20067;-72
2022/06/19 11:07:42;;;;;;;18.45;3.45;;;16.20;64.20;;;;;;4919459;29;20044;-72
2022/06/19 11:10:40;;;;;;;17.45;2.95;;;15.90;64.70;;;;;;4934884;29;20063;-72
2022/06/19 11:13:09;;;;;;;13.18;2.45;;;15.60;65.60;;;;;;4934068;29;20052;-72
2022/06/19 11:15:41;;;;;;;15.35;2.65;;;15.40;66.60;;;;;;4931518;29;20048;-72
2022/06/19 11:18:15;;;;;;;11.23;2.00;;;15.30;67.00;;;;;;4924341;29;20052;-72
2022/06/19 11:20:53;;;;;;;15.63;2.22;;;15.30;67.20;;;;;;4935024;29;20055;-72
2022/06/19 11:23:44;;;;;;;19.92;2.88;;;15.40;67.20;;;;;;4934688;29;20115;-71
2022/06/19 11:26:25;;;;;;;10.98;2.08;;;15.60;67.00;;;;;;4934678;29;20052;-71
2022/06/19 11:29:24;;;;;;;8.35;2.10;;;15.80;66.90;;;;;;4934451;29;20489;-73
2022/06/19 11:32:12;;;;;;;12.02;2.13;;;16.30;66.10;;;;;;4916551;29;20096;-71
2022/06/19 11:34:43;;;;;;;13.13;2.20;;;16.80;64.70;;;;;;4907852;29;20064;-72
2022/06/19 11:37:29;;;;;;;16.75;2.42;;;17.20;63.80;;;;;;4915806;29;20446;-72
2022/06/19 11:39:59;;;;;;;13.23;1.85;;;17.50;63.00;;;;;;4915539;29;20048;-71
2022/06/19 11:42:33;;;;;;;18.77;2.45;;;17.70;62.40;;;;;;4927649;29;20055;-73
2022/06/19 11:45:04;;;;;;;15.23;2.80;;;17.70;60.90;;;;;;4941368;29;20047;-71
2022/06/19 11:47:38;;;;;;;13.85;2.13;;;17.80;61.00;;;;;;4955826;29;20047;-71
2022/06/19 11:50:20;;;;;;;11.32;2.10;;;17.90;60.90;;;;;;4956074;29;20051;-71
2022/06/19 11:52:52;;;;;;;13.40;2.35;;;18.30;59.20;;;;;;4953432;29;20493;-71
2022/06/19 11:55:42;;;;;;;12.25;2.47;;;18.40;58.40;;;;;;4958225;28;20088;-71
2022/06/19 11:58:31;;;;;;;12.75;2.13;;;18.40;58.10;;;;;;4954944;28;20055;-71
2022/06/19 12:01:03;;;;;;;12.75;2.20;;;18.30;57.20;;;;;;4955518;29;20119;-71
2022/06/19 12:03:38;;;;;;;15.25;2.88;;;18.10;58.10;;;;;;4955051;29;20522;-71
2022/06/19 12:06:09;;;;;;;13.27;2.20;;;18.00;59.20;;;;;;4955461;29;20047;-72
2022/06/19 12:08:55;;;;;;;11.70;2.60;;;17.90;59.40;;;;;;4955395;29;20051;-72
2022/06/19 12:11:53;;;;;;;15.13;3.08;;;17.90;59.60;;;;;;4955355;29;20055;-72
2022/06/19 12:14:31;;;;;;;21.02;3.50;;;18.00;59.30;;;;;;4954076;29;20047;-72
2022/06/19 12:17:22;;;;;;;19.90;3.42;;;18.30;59.40;;;;;;4955124;29;20051;-71
2022/06/19 12:20:00;;;;;;;12.07;2.33;;;18.60;57.90;;;;;;4955342;29;20047;-72
2022/06/19 12:22:52;;;;;;;15.55;3.20;;;18.60;57.30;;;;;;4936065;29;20047;-71
2022/06/19 12:25:31;;;;;;;12.50;2.58;;;18.40;57.20;;;;;;4935926;29;20078;-72
2022/06/19 12:28:31;;;;;;;19.00;2.70;;;18.30;58.00;;;;;;4936041;29;20413;-72
2022/06/19 12:31:25;;;;;;;15.65;3.08;;;18.20;58.00;;;;;;4933917;29;20056;-72
2022/06/19 12:33:55;;;;;;;;;;;18.20;58.60;;;;;;4949607;29;20050;-72
2022/06/19 12:36:34;;;;;;;19.83;3.05;;;18.30;59.00;;;;;;4954866;29;19926;-71
2022/06/19 12:39:03;;;;;;;27.30;3.33;;;18.20;59.30;;;;;;4954992;29;20070;-72
2022/06/19 12:42:10;;;;;;;12.18;2.55;;;18.20;59.70;;;;;;4954431;29;20039;-72
2022/06/19 12:45:13;;;;;;;16.30;2.67;;;18.40;58.90;;;;;;4876452;29;20528;-72
2022/06/19 12:47:56;;;;;;;18.48;3.33;;;18.90;58.00;;;;;;4874547;29;20056;-72
2022/06/19 12:51:01;;;;;;;14.55;2.70;;;19.30;57.40;;;;;;4895600;29;20056;-71
2022/06/19 12:53:34;;;;;;;14.02;2.95;;;19.40;56.80;;;;;;4879437;29;20124;-72
2022/06/19 12:56:16;;;;;;;14.00;2.58;;;19.60;55.90;;;;;;4895245;29;20060;-72
2022/06/19 12:59:02;;;;;;;15.93;2.85;;;19.80;55.70;;;;;;4895333;29;20502;-71
2022/06/19 13:02:13;;;;;;;16.63;2.72;;;20.10;55.50;;;;;;4895195;29;20057;-72
2022/06/19 13:05:23;;;;;;;18.02;2.95;;;20.80;53.70;;;;;;4879519;29;20515;-71
2022/06/19 13:08:12;;;;;;;14.57;3.13;;;21.10;51.40;;;;;;4874723;29;20100;-72
2022/06/19 13:11:11;;;;;;;18.90;3.25;;;21.00;51.00;;;;;;4895223;29;20048;-72
2022/06/19 13:13:52;;;;;;;23.02;3.80;;;20.90;50.70;;;;;;4883016;29;20063;-72
2022/06/19 13:16:46;;;;;;;11.35;2.45;;;20.70;51.20;;;;;;4941814;29;20054;-71
2022/06/19 13:19:29;;;;;;;16.35;3.20;;;20.30;51.70;;;;;;4945701;29;20043;-71
2022/06/19 13:22:30;;;;;;;15.27;3.20;;;20.10;52.00;;;;;;4952247;29;20051;-71
2022/06/19 13:25:15;;;;;;;18.73;3.00;;;19.70;52.40;;;;;;4935054;29;20406;-72
2022/06/19 13:28:18;;;;;;;15.52;2.90;;;19.20;53.50;;;;;;4949334;29;20054;-72
2022/06/19 13:31:07;;;;;;;14.85;2.70;;;18.80;54.70;;;;;;4930666;29;20059;-72
2022/06/19 13:34:20;;;;;;;27.42;3.70;;;18.20;55.90;;;;;;4935615;29;20513;-72